Aérodrome :
LOGIN :

S'inscrire | Disclaimer

   EN    FR    IT 

 










Légende :    VFR   VFR Marginal   IFR   IFR Intensif   IFR Très Intensif
Visi : 
Plafond : 
>= 8 km
>= 3000ft
5 à 8 km
1000 à 3000 ft
1500m à 5 km
500 à 1000 ft
800 à 1500m
200 à 500 ft
< 800m
< 200 ft
Symboles :   Orages  Brouillard  Fortes neiges  Fortes précipitations  Vent > 20 kt
SIGMETs :   Divers  Orages  Givrage  Turbulence  Onde Orograph.  Cendres Volcan.







- Altitude de l'aérodrome : 1504 ft
- Code IATA : PNA


LEPP - Noain Pamplona

DERNIER METAR :
  • 180730Z VRB01KT CAVOK 00/M03 Q1021

METARs EXPIRÉS :
  • 180700Z VRB02KT CAVOK M00/M03 Q1020
  • 180630Z VRB02KT CAVOK M00/M03 Q1020
  • 180600Z VRB02KT CAVOK 00/M03 Q1020
  • 180530Z 17003KT CAVOK 00/M02 Q1020
  • 180500Z 00000KT CAVOK 01/M03 Q1020

TAF TAF LEPP
Valide du 18 à 03h jusqu'au 19 à 03h UTC


180200Z 1803/1903 17010KT 9999 FEW040 TX15/1815Z TN01/1805Z
TEMPO 1803/1903 VRB05KT
Pas de NOTAMs connus pour ce terrain.
1 SIGMET publié pour la FIR Madrid (LECM) :
 
Orages noyés dans la masse
LECM SIGMET 1 VALID 180727/181000 LEVA
LECM MADRID FIR/UIR EMBD TS FCST SW OF LINE N3733 W00715 - N3607 W00543 TOP FL300 STNR NC=



MET'MAP, la Météo Aéronautique d'un coup d'oeil ! - Copyright ORBIFLY Décembre 2007 - Disclaimer

ORBIFLY MET'MAP TEAM :

Programmation & Développement : Alexandra Zaïnal
Conception & Développement : Baudouin d'Aumeries
Co-Programmation & Développement : Marc-Olivier Méhu
Soutien technique & logistique : Manuel Goepfert

Contact : metmap@orbifly.com




SOURCES & CREDITS :

   NOAA